createdAt,value
2018-12-19T00:00:40.748Z,17.57
2018-12-19T00:03:09.215Z,17.07
2018-12-19T00:05:37.715Z,17.07
2018-12-19T00:08:06.091Z,18.40
2018-12-19T00:10:34.631Z,17.30
2018-12-19T00:13:02.945Z,17.80
2018-12-19T00:15:31.221Z,18.50
2018-12-19T00:17:59.676Z,16.97
2018-12-19T00:20:27.936Z,17.50
2018-12-19T00:22:56.320Z,16.93
2018-12-19T00:25:24.701Z,17.20
2018-12-19T00:27:53.015Z,17.13
2018-12-19T00:30:21.385Z,19.83
2018-12-19T00:32:49.837Z,19.47
2018-12-19T00:35:18.196Z,19.63
2018-12-19T00:37:46.683Z,18.00
2018-12-19T00:40:15.000Z,18.53
2018-12-19T00:42:43.306Z,18.60
2018-12-19T00:45:11.620Z,18.47
2018-12-19T00:47:39.996Z,19.80
2018-12-19T00:50:08.297Z,18.17
2018-12-19T00:52:36.626Z,19.93
2018-12-19T00:55:05.736Z,19.80
2018-12-19T00:57:34.061Z,21.00
2018-12-19T01:00:02.365Z,21.57
2018-12-19T01:02:30.699Z,20.33
2018-12-19T01:04:59.225Z,21.30
2018-12-19T01:07:27.671Z,19.97
2018-12-19T01:09:55.971Z,18.93
2018-12-19T01:12:24.265Z,19.60
2018-12-19T01:14:52.628Z,20.43
2018-12-19T01:17:20.918Z,19.67
2018-12-19T01:19:49.335Z,20.17
2018-12-19T01:22:17.473Z,19.73
2018-12-19T01:24:45.772Z,19.87
2018-12-19T01:27:14.049Z,20.27
2018-12-19T01:29:42.450Z,20.00
2018-12-19T01:32:10.760Z,20.40
2018-12-19T01:34:39.087Z,19.53
2018-12-19T01:37:07.359Z,17.67
2018-12-19T01:39:35.705Z,19.30
2018-12-19T01:42:03.737Z,19.27
2018-12-19T01:44:32.103Z,18.43
2018-12-19T01:47:00.156Z,18.70
2018-12-19T01:49:28.208Z,19.50
2018-12-19T01:51:56.476Z,19.70
2018-12-19T01:54:24.839Z,18.33
2018-12-19T01:56:53.167Z,18.83
2018-12-19T01:59:21.515Z,18.80
2018-12-19T02:01:49.553Z,17.30
2018-12-19T02:04:17.624Z,18.13
2018-12-19T02:06:45.989Z,18.90
2018-12-19T02:09:15.158Z,19.07
2018-12-19T02:11:43.422Z,18.40
2018-12-19T02:14:11.824Z,18.80
2018-12-19T02:16:40.127Z,18.83
2018-12-19T02:19:08.500Z,17.37
2018-12-19T02:21:36.868Z,17.50
2018-12-19T02:24:05.248Z,17.37
2018-12-19T02:26:33.517Z,17.90
2018-12-19T02:29:01.901Z,17.50
2018-12-19T02:31:30.201Z,17.17
2018-12-19T02:33:58.504Z,16.77
2018-12-19T02:36:26.569Z,18.17
2018-12-19T02:38:54.859Z,17.93
2018-12-19T02:41:22.931Z,16.63
2018-12-19T02:43:51.284Z,15.70
2018-12-19T02:46:19.789Z,18.07
2018-12-19T02:48:48.083Z,15.50
2018-12-19T02:51:16.393Z,16.47
2018-12-19T02:53:44.656Z,15.53
2018-12-19T02:56:12.824Z,16.07
2018-12-19T02:58:40.897Z,15.03
2018-12-19T03:01:08.969Z,15.17
2018-12-19T03:03:37.244Z,14.93
2018-12-19T03:06:05.545Z,13.70
2018-12-19T03:08:33.820Z,15.57
2018-12-19T03:11:02.639Z,14.30
2018-12-19T03:13:31.167Z,15.17
2018-12-19T03:15:59.466Z,15.70
2018-12-19T03:18:27.875Z,16.47
2018-12-19T03:20:56.175Z,16.07
2018-12-19T03:23:24.701Z,16.97
2018-12-19T03:25:53.008Z,17.57
2018-12-19T03:28:21.335Z,16.67
2018-12-19T03:30:49.877Z,18.93
2018-12-19T03:33:18.163Z,18.17
2018-12-19T03:35:46.459Z,18.90
2018-12-19T03:38:16.498Z,18.40
2018-12-19T03:40:44.843Z,19.33
2018-12-19T03:43:13.125Z,17.27
2018-12-19T03:45:41.425Z,18.67
2018-12-19T03:48:11.460Z,18.63
2018-12-19T03:50:39.801Z,17.80
2018-12-19T03:53:08.169Z,19.20
2018-12-19T03:55:36.232Z,19.43
2018-12-19T03:58:04.586Z,20.13
2018-12-19T04:00:32.885Z,18.83
2018-12-19T04:03:01.222Z,18.40
2018-12-19T04:05:29.666Z,18.10
2018-12-19T04:07:57.709Z,18.73
2018-12-19T04:10:25.984Z,17.30
2018-12-19T04:12:54.402Z,17.60
2018-12-19T04:15:22.673Z,17.80
2018-12-19T04:17:50.994Z,17.27
2018-12-19T04:20:19.268Z,15.17
2018-12-19T04:22:47.626Z,16.97
2018-12-19T04:25:15.933Z,16.13
2018-12-19T04:27:44.314Z,17.80
2018-12-19T04:30:12.685Z,19.13
2018-12-19T04:32:41.211Z,16.63
2018-12-19T04:35:09.545Z,17.43
2018-12-19T04:37:37.883Z,18.03
2018-12-19T04:40:06.275Z,16.33
2018-12-19T04:42:34.821Z,16.40
2018-12-19T04:45:03.196Z,16.20
2018-12-19T04:47:31.500Z,18.20
2018-12-19T04:49:59.780Z,15.60
2018-12-19T04:52:27.950Z,14.50
2018-12-19T04:54:56.253Z,14.60
2018-12-19T04:57:24.621Z,14.27
2018-12-19T04:59:52.893Z,14.20
2018-12-19T05:02:21.191Z,14.53
2018-12-19T05:04:49.551Z,14.57
2018-12-19T05:07:18.873Z,13.87
2018-12-19T05:09:47.157Z,14.40
2018-12-19T05:12:15.463Z,14.20
2018-12-19T05:14:43.740Z,14.03
2018-12-19T05:17:12.259Z,13.63
2018-12-19T05:19:40.348Z,13.30
2018-12-19T05:22:08.414Z,12.73
2018-12-19T05:24:36.772Z,13.40
2018-12-19T05:27:04.895Z,11.23
2018-12-19T05:29:33.177Z,13.23
2018-12-19T05:32:01.501Z,12.83
2018-12-19T05:34:29.769Z,12.00
2018-12-19T05:36:58.770Z,12.23
2018-12-19T05:39:27.142Z,12.37
2018-12-19T05:41:55.511Z,12.07
2018-12-19T05:44:23.531Z,13.10
2018-12-19T05:46:51.828Z,12.87
2018-12-19T05:49:20.164Z,12.33
2018-12-19T05:51:48.520Z,13.40
2018-12-19T05:54:16.974Z,13.23
2018-12-19T05:56:45.012Z,14.97
2018-12-19T05:59:13.416Z,13.90
2018-12-19T06:01:41.715Z,14.10
2018-12-19T06:04:10.093Z,14.37
2018-12-19T06:06:38.525Z,14.30
2018-12-19T06:09:06.965Z,13.73
2018-12-19T06:11:35.387Z,13.23
2018-12-19T06:14:03.776Z,14.97
2018-12-19T06:16:32.137Z,13.93
2018-12-19T06:19:00.472Z,11.33
2018-12-19T06:21:28.876Z,9.27
2018-12-19T06:23:57.394Z,9.67
2018-12-19T06:26:25.672Z,9.30
2018-12-19T06:28:54.181Z,9.17
2018-12-19T06:31:22.251Z,8.53
2018-12-19T06:33:50.744Z,10.20
2018-12-19T06:36:19.020Z,9.10
2018-12-19T06:38:47.353Z,8.10
2018-12-19T06:41:15.728Z,10.40
2018-12-19T06:43:44.141Z,12.27
2018-12-19T06:46:12.266Z,12.07
2018-12-19T06:48:40.671Z,13.90
2018-12-19T06:51:09.235Z,12.60
2018-12-19T06:53:37.590Z,12.47
2018-12-19T06:56:05.981Z,12.50
2018-12-19T06:58:34.335Z,11.27
2018-12-19T07:01:02.705Z,11.67
2018-12-19T07:03:31.031Z,11.90
2018-12-19T07:05:59.321Z,13.37
2018-12-19T07:08:27.705Z,13.67
2018-12-19T07:10:56.090Z,14.17
2018-12-19T07:13:24.363Z,15.00
2018-12-19T07:15:52.667Z,13.17
2018-12-19T07:18:20.965Z,13.03
2018-12-19T07:20:49.451Z,12.97
2018-12-19T07:23:17.829Z,12.13
2018-12-19T07:25:46.235Z,11.47
2018-12-19T07:28:14.501Z,10.87
2018-12-19T07:30:42.883Z,10.77
2018-12-19T07:33:11.332Z,10.60
2018-12-19T07:35:39.662Z,10.70
2018-12-19T07:38:07.932Z,10.70
2018-12-19T07:40:36.400Z,10.43
2018-12-19T07:43:04.776Z,10.80
2018-12-19T07:45:33.123Z,11.73
2018-12-19T07:48:01.736Z,12.00
2018-12-19T07:50:30.037Z,11.30
2018-12-19T07:52:58.561Z,12.40
2018-12-19T07:55:28.627Z,14.80
2018-12-19T07:57:56.893Z,17.00
2018-12-19T08:00:27.567Z,13.43
2018-12-19T08:02:55.538Z,13.03
2018-12-19T08:05:26.321Z,14.73
2018-12-19T08:07:54.493Z,13.23
2018-12-19T08:10:22.789Z,13.13
2018-12-19T08:12:51.602Z,12.97
2018-12-19T08:15:20.100Z,12.70
2018-12-19T08:17:48.384Z,13.77
2018-12-19T08:20:16.672Z,12.80
2018-12-19T08:22:44.964Z,12.90
2018-12-19T08:25:13.251Z,14.43
2018-12-19T08:27:41.679Z,12.60
2018-12-19T08:30:10.401Z,11.40
2018-12-19T08:32:38.847Z,12.63
2018-12-19T08:35:07.258Z,12.03
2018-12-19T08:37:35.544Z,19.27
2018-12-19T08:40:04.236Z,17.73
2018-12-19T08:42:32.590Z,18.63
2018-12-19T08:45:00.944Z,19.47
2018-12-19T08:47:29.232Z,12.60
2018-12-19T08:49:57.624Z,14.00
2018-12-19T08:52:25.938Z,12.37
2018-12-19T08:54:54.266Z,12.23
2018-12-19T08:57:22.646Z,15.57
2018-12-19T08:59:50.950Z,13.60
2018-12-19T09:02:19.293Z,12.60
2018-12-19T09:04:47.649Z,10.93
2018-12-19T09:07:16.073Z,10.07
2018-12-19T09:09:44.425Z,9.80
2018-12-19T09:12:12.736Z,9.07
2018-12-19T09:14:41.090Z,8.93
2018-12-19T09:17:09.797Z,9.00
2018-12-19T09:19:38.356Z,7.83
2018-12-19T09:22:06.724Z,7.50
2018-12-19T09:24:35.004Z,7.00
2018-12-19T09:27:03.299Z,6.83
2018-12-19T09:29:31.653Z,6.80
2018-12-19T09:32:00.120Z,7.93
2018-12-19T09:34:28.590Z,8.53
2018-12-19T09:36:56.900Z,8.53
2018-12-19T09:39:25.379Z,7.70
2018-12-19T09:41:53.752Z,7.23
2018-12-19T09:44:22.022Z,7.53
2018-12-19T09:46:50.305Z,7.47
2018-12-19T09:49:18.579Z,7.20
2018-12-19T09:51:46.944Z,7.90
2018-12-19T09:54:15.226Z,7.13
2018-12-19T09:56:43.532Z,7.40
2018-12-19T09:59:11.788Z,8.37
2018-12-19T10:01:40.258Z,9.53
2018-12-19T10:04:08.530Z,7.23
2018-12-19T10:06:36.917Z,7.00
2018-12-19T10:09:08.885Z,6.80
2018-12-19T10:11:37.560Z,7.23
2018-12-19T10:14:05.947Z,7.50
2018-12-19T10:16:34.228Z,6.50
2018-12-19T10:19:02.616Z,7.43
2018-12-19T10:21:31.079Z,7.47
2018-12-19T10:23:59.448Z,7.13
2018-12-19T10:26:27.748Z,6.93
2018-12-19T10:28:56.173Z,7.40
2018-12-19T10:31:24.629Z,7.13
2018-12-19T10:33:52.953Z,7.33
2018-12-19T10:36:22.773Z,5.63
2018-12-19T10:38:51.032Z,6.27
2018-12-19T10:41:25.318Z,5.87
2018-12-19T10:43:50.007Z,6.60
2018-12-19T10:46:18.661Z,6.93
2018-12-19T10:48:46.949Z,6.90
2018-12-19T10:51:15.034Z,6.27
2018-12-19T10:53:43.352Z,6.77
2018-12-19T10:56:11.639Z,6.30
2018-12-19T10:58:40.036Z,6.47
2018-12-19T11:01:08.304Z,6.53
2018-12-19T11:03:36.742Z,6.30
2018-12-19T11:06:04.910Z,5.63
2018-12-19T11:08:33.205Z,5.10
2018-12-19T11:11:01.487Z,5.63
2018-12-19T11:13:29.795Z,5.63
2018-12-19T11:15:58.110Z,5.37
2018-12-19T11:18:28.308Z,6.60
2018-12-19T11:20:56.677Z,8.37
2018-12-19T11:23:25.008Z,7.50
2018-12-19T11:25:53.292Z,8.53
2018-12-19T11:28:21.579Z,8.07
2018-12-19T11:30:49.856Z,6.10
2018-12-19T11:33:18.165Z,5.53
2018-12-19T11:35:46.482Z,6.37
2018-12-19T11:38:14.865Z,6.20
2018-12-19T11:40:43.149Z,5.67
2018-12-19T11:43:11.516Z,6.23
2018-12-19T11:45:39.795Z,5.57
2018-12-19T11:48:08.089Z,6.00
2018-12-19T11:50:36.489Z,8.67
2018-12-19T11:53:04.902Z,10.07
2018-12-19T11:55:33.208Z,11.63
2018-12-19T11:58:01.558Z,6.37
2018-12-19T12:00:29.938Z,8.53
2018-12-19T12:02:58.334Z,6.87
2018-12-19T12:05:26.688Z,6.10
2018-12-19T12:07:55.007Z,5.93
2018-12-19T12:10:23.058Z,6.00
2018-12-19T12:12:51.457Z,17.13
2018-12-19T12:15:19.729Z,19.30
2018-12-19T12:17:47.789Z,20.60
2018-12-19T12:20:16.069Z,9.30
2018-12-19T12:22:44.198Z,8.77
2018-12-19T12:25:12.465Z,7.47
2018-12-19T12:27:40.792Z,5.37
2018-12-19T12:30:09.159Z,5.13
2018-12-19T12:32:37.436Z,6.47
2018-12-19T12:35:06.639Z,10.27
2018-12-19T12:37:35.056Z,10.63
2018-12-19T12:40:03.503Z,10.80
2018-12-19T12:42:31.764Z,8.93
2018-12-19T12:45:00.245Z,7.23
2018-12-19T12:47:28.707Z,9.73
2018-12-19T12:49:57.103Z,14.47
2018-12-19T12:52:25.377Z,13.10
2018-12-19T12:54:53.753Z,9.87
2018-12-19T12:57:22.042Z,10.40
2018-12-19T12:59:50.408Z,7.77
2018-12-19T13:02:18.682Z,11.10
2018-12-19T13:04:47.008Z,8.73
2018-12-19T13:07:15.343Z,7.23
2018-12-19T13:09:43.720Z,7.13
2018-12-19T13:12:12.307Z,7.40
2018-12-19T13:14:40.697Z,8.13
2018-12-19T13:17:08.817Z,6.77
2018-12-19T13:19:37.229Z,7.17
2018-12-19T13:22:05.537Z,10.43
2018-12-19T13:24:33.837Z,12.67
2018-12-19T13:27:02.164Z,13.23
2018-12-19T13:29:30.468Z,11.30
2018-12-19T13:31:59.539Z,9.90
2018-12-19T13:34:27.916Z,8.00
2018-12-19T13:36:56.356Z,9.00
2018-12-19T13:39:24.731Z,7.97
2018-12-19T13:41:53.036Z,8.27
2018-12-19T13:44:21.413Z,8.03
2018-12-19T13:46:49.669Z,7.60
2018-12-19T13:49:18.073Z,9.10
2018-12-19T13:51:46.448Z,8.63
2018-12-19T13:54:14.816Z,7.43
2018-12-19T13:56:43.108Z,7.67
2018-12-19T13:59:11.602Z,7.23
2018-12-19T14:01:39.868Z,6.67
2018-12-19T14:04:08.334Z,6.00
2018-12-19T14:06:36.602Z,5.43
2018-12-19T14:09:06.702Z,5.23
2018-12-19T14:11:35.078Z,5.27
2018-12-19T14:14:03.469Z,5.10
2018-12-19T14:16:31.937Z,4.53
2018-12-19T14:19:00.633Z,5.10
2018-12-19T14:21:29.029Z,5.93
2018-12-19T14:23:57.381Z,5.90
2018-12-19T14:26:26.004Z,4.77
2018-12-19T14:28:54.420Z,5.03
2018-12-19T14:31:22.986Z,6.57
2018-12-19T14:33:51.312Z,8.00
2018-12-19T14:36:19.796Z,9.17
2018-12-19T14:38:48.051Z,6.87
2018-12-19T14:41:16.343Z,7.00
2018-12-19T14:43:44.634Z,7.13
2018-12-19T14:46:13.008Z,6.63
2018-12-19T14:48:41.284Z,5.03
2018-12-19T14:51:09.864Z,6.60
2018-12-19T14:53:38.253Z,9.90
2018-12-19T14:56:06.645Z,7.73
2018-12-19T14:58:34.988Z,6.50
2018-12-19T15:01:03.362Z,10.63
2018-12-19T15:03:31.638Z,12.67
2018-12-19T15:05:59.925Z,6.93
2018-12-19T15:08:28.408Z,6.00
2018-12-19T15:10:56.789Z,4.70
2018-12-19T15:13:25.283Z,4.10
2018-12-19T15:15:59.207Z,5.43
2018-12-19T15:18:27.543Z,5.23
2018-12-19T15:20:55.835Z,12.93
2018-12-19T15:23:24.113Z,9.63
2018-12-19T15:25:52.405Z,9.07
2018-12-19T15:28:20.699Z,9.13
2018-12-19T15:30:49.233Z,6.67
2018-12-19T15:33:17.606Z,9.63
2018-12-19T15:35:45.928Z,8.07
2018-12-19T15:38:14.232Z,8.70
2018-12-19T15:40:42.610Z,7.47
2018-12-19T15:43:10.989Z,7.13
2018-12-19T15:45:39.294Z,8.73
2018-12-19T15:48:07.744Z,8.17
2018-12-19T15:50:36.045Z,8.07
2018-12-19T15:53:04.357Z,9.70
2018-12-19T15:55:32.853Z,13.90
2018-12-19T15:58:01.321Z,11.73
2018-12-19T16:00:29.654Z,11.87
2018-12-19T16:02:58.059Z,10.57
2018-12-19T16:05:26.392Z,9.80
2018-12-19T16:07:54.701Z,9.10
2018-12-19T16:10:22.961Z,9.90
2018-12-19T16:12:51.285Z,10.33
2018-12-19T16:15:19.615Z,9.73
2018-12-19T16:17:47.914Z,9.33
2018-12-19T16:20:16.188Z,9.73
2018-12-19T16:22:44.648Z,8.57
2018-12-19T16:25:12.940Z,8.47
2018-12-19T16:27:41.228Z,8.10
2018-12-19T16:30:09.380Z,8.47
2018-12-19T16:32:37.999Z,8.07
2018-12-19T16:35:06.328Z,8.57
2018-12-19T16:37:34.711Z,10.97
2018-12-19T16:40:02.985Z,9.23
2018-12-19T16:42:31.370Z,8.33
2018-12-19T16:44:59.711Z,6.37
2018-12-19T16:47:28.012Z,7.77
2018-12-19T16:49:56.388Z,6.77
2018-12-19T16:52:24.695Z,6.13
2018-12-19T16:54:53.004Z,7.10
2018-12-19T16:57:21.422Z,7.60
2018-12-19T16:59:49.783Z,6.80
2018-12-19T17:02:18.184Z,6.50
2018-12-19T17:04:46.469Z,7.57
2018-12-19T17:07:14.832Z,5.73
2018-12-19T17:09:43.106Z,5.93
2018-12-19T17:12:11.409Z,6.17
2018-12-19T17:14:39.681Z,6.07
2018-12-19T17:17:08.049Z,7.00
2018-12-19T17:19:36.323Z,14.03
2018-12-19T17:22:04.620Z,16.47
2018-12-19T17:24:38.281Z,9.83
2018-12-19T17:27:06.669Z,8.63
2018-12-19T17:29:35.119Z,6.80
2018-12-19T17:32:03.901Z,5.60
2018-12-19T17:34:32.205Z,4.63
2018-12-19T17:37:00.312Z,4.17
2018-12-19T17:39:28.685Z,4.50
2018-12-19T17:41:56.969Z,5.13
2018-12-19T17:44:25.182Z,4.50
2018-12-19T17:46:53.584Z,4.60
2018-12-19T17:49:21.964Z,4.87
2018-12-19T17:51:50.346Z,5.37
2018-12-19T17:54:18.779Z,4.37
2018-12-19T17:56:46.832Z,5.07
2018-12-19T17:59:15.161Z,5.03
2018-12-19T18:01:43.416Z,5.10
2018-12-19T18:04:11.801Z,4.73
2018-12-19T18:06:40.092Z,4.87
2018-12-19T18:09:08.152Z,6.23
2018-12-19T18:11:36.466Z,6.27
2018-12-19T18:14:04.835Z,7.47
2018-12-19T18:16:33.172Z,6.30
2018-12-19T18:19:01.475Z,5.60
2018-12-19T18:21:29.948Z,6.43
2018-12-19T18:23:58.432Z,6.73
2018-12-19T18:26:26.721Z,5.80
2018-12-19T18:28:54.847Z,5.30
2018-12-19T18:31:22.900Z,6.07
2018-12-19T18:33:51.241Z,4.83
2018-12-19T18:36:19.281Z,5.07
2018-12-19T18:38:47.715Z,5.07
2018-12-19T18:41:16.057Z,5.83
2018-12-19T18:43:44.137Z,6.07
2018-12-19T18:46:12.437Z,6.53
2018-12-19T18:48:40.580Z,6.47
2018-12-19T18:51:08.957Z,7.83
2018-12-19T18:53:37.040Z,11.97
2018-12-19T18:56:05.374Z,13.23
2018-12-19T18:58:33.859Z,15.03
2018-12-19T19:01:02.270Z,16.57
2018-12-19T19:03:30.653Z,20.57
2018-12-19T19:05:58.981Z,14.43
2018-12-19T19:08:27.560Z,15.23
2018-12-19T19:10:55.743Z,10.73
2018-12-19T19:13:23.789Z,8.07
2018-12-19T19:15:52.118Z,8.03
2018-12-19T19:18:20.416Z,7.47
2018-12-19T19:20:48.873Z,5.93
2018-12-19T19:23:17.244Z,6.60
2018-12-19T19:25:45.540Z,5.60
2018-12-19T19:28:14.504Z,5.63
2018-12-19T19:30:43.080Z,6.73
2018-12-19T19:33:12.702Z,11.60
2018-12-19T19:35:40.988Z,15.50
2018-12-19T19:38:09.297Z,11.27
2018-12-19T19:40:38.046Z,8.33
2018-12-19T19:43:06.358Z,9.60
2018-12-19T19:45:34.390Z,9.27
2018-12-19T19:48:02.759Z,7.10
2018-12-19T19:50:31.063Z,9.07
2018-12-19T19:52:59.419Z,7.83
2018-12-19T19:55:27.919Z,8.57
2018-12-19T19:57:56.461Z,7.20
2018-12-19T20:00:29.243Z,6.60
2018-12-19T20:02:57.282Z,7.40
2018-12-19T20:05:25.585Z,7.50
2018-12-19T20:07:53.849Z,7.90
2018-12-19T20:10:22.221Z,8.53
2018-12-19T20:12:50.354Z,9.53
2018-12-19T20:15:18.637Z,11.07
2018-12-19T20:17:46.909Z,10.47
2018-12-19T20:20:16.512Z,9.50
2018-12-19T20:22:45.638Z,9.60
2018-12-19T20:25:13.968Z,10.53
2018-12-19T20:27:42.448Z,10.03
2018-12-19T20:30:11.066Z,12.53
2018-12-19T20:32:39.114Z,11.70
2018-12-19T20:35:07.261Z,10.83
2018-12-19T20:37:35.309Z,12.87
2018-12-19T20:40:03.457Z,15.17
2018-12-19T20:42:31.791Z,24.37
2018-12-19T20:45:00.124Z,22.40
2018-12-19T20:47:28.256Z,13.67
2018-12-19T20:49:56.562Z,12.67
2018-12-19T20:52:24.594Z,12.50
2018-12-19T20:54:52.918Z,11.47
2018-12-19T20:57:21.251Z,11.07
2018-12-19T20:59:49.332Z,12.47
2018-12-19T21:02:17.583Z,12.07
2018-12-19T21:04:45.834Z,11.73
2018-12-19T21:07:14.006Z,11.73
2018-12-19T21:09:42.307Z,12.10
2018-12-19T21:12:10.648Z,11.70
2018-12-19T21:14:39.018Z,11.93
2018-12-19T21:17:12.848Z,12.37
2018-12-19T21:19:41.194Z,11.97
2018-12-19T21:22:10.802Z,12.00
2018-12-19T21:24:39.235Z,12.60
2018-12-19T21:27:07.627Z,13.33
2018-12-19T21:29:36.000Z,13.83
2018-12-19T21:32:04.065Z,17.53
2018-12-19T21:34:32.419Z,13.13
2018-12-19T21:37:01.997Z,13.10
2018-12-19T21:39:30.811Z,12.90
2018-12-19T21:41:59.155Z,15.73
2018-12-19T21:44:27.711Z,15.30
2018-12-19T21:46:56.049Z,14.00
2018-12-19T21:49:25.244Z,13.70
2018-12-19T21:51:53.680Z,13.67
2018-12-19T21:54:22.247Z,13.77
2018-12-19T21:56:50.678Z,14.40
2018-12-19T21:59:19.153Z,12.00
2018-12-19T22:01:47.471Z,12.40
2018-12-19T22:04:15.863Z,11.60
2018-12-19T22:06:44.203Z,12.47
2018-12-19T22:09:12.875Z,13.37
2018-12-19T22:11:41.197Z,12.27
2018-12-19T22:14:09.502Z,12.40
2018-12-19T22:16:43.300Z,12.17
2018-12-19T22:19:11.675Z,11.93
2018-12-19T22:21:40.218Z,12.13
2018-12-19T22:24:08.490Z,11.80
2018-12-19T22:26:36.806Z,11.33
2018-12-19T22:29:05.152Z,11.97
2018-12-19T22:31:33.697Z,12.80
2018-12-19T22:34:02.262Z,12.83
2018-12-19T22:36:30.559Z,12.50
2018-12-19T22:38:58.931Z,11.57
2018-12-19T22:41:27.453Z,11.27
2018-12-19T22:43:55.715Z,12.00
2018-12-19T22:46:24.124Z,11.47
2018-12-19T22:48:52.563Z,11.47
2018-12-19T22:51:21.146Z,11.93
2018-12-19T22:53:49.187Z,18.73
2018-12-19T22:56:17.482Z,15.20
2018-12-19T22:58:45.603Z,11.10
2018-12-19T23:01:19.598Z,11.73
2018-12-19T23:03:53.704Z,11.10
2018-12-19T23:06:22.290Z,11.40
2018-12-19T23:08:50.355Z,11.83
2018-12-19T23:11:18.733Z,12.80
2018-12-19T23:13:47.066Z,12.53
2018-12-19T23:16:15.719Z,12.10
2018-12-19T23:18:44.004Z,12.23
2018-12-19T23:21:12.670Z,12.67
2018-12-19T23:23:40.954Z,11.10
2018-12-19T23:26:09.393Z,11.70
2018-12-19T23:28:37.948Z,11.47
2018-12-19T23:31:06.578Z,12.37
2018-12-19T23:33:34.677Z,11.97
2018-12-19T23:36:03.139Z,12.03
2018-12-19T23:38:31.739Z,12.60
2018-12-19T23:41:00.453Z,12.00
2018-12-19T23:43:28.752Z,11.90
2018-12-19T23:45:57.422Z,11.37
2018-12-19T23:48:25.941Z,12.37
2018-12-19T23:50:54.268Z,11.97
2018-12-19T23:53:22.800Z,11.27
2018-12-19T23:55:51.208Z,11.53
2018-12-19T23:58:19.774Z,12.60
